sensor_id;sensor_type;location;lat;lon;timestamp;temperature;humidity
35240;DHT22;21376;50.954;4.716;2023-03-13T00:01:24;10.80;99.90
35240;DHT22;21376;50.954;4.716;2023-03-13T00:03:53;10.70;99.90
35240;DHT22;21376;50.954;4.716;2023-03-13T00:06:29;10.80;99.90
35240;DHT22;21376;50.954;4.716;2023-03-13T00:08:58;10.80;99.90
35240;DHT22;21376;50.954;4.716;2023-03-13T00:11:28;10.80;99.90
35240;DHT22;21376;50.954;4.716;2023-03-13T00:13:58;10.90;99.90
35240;DHT22;21376;50.954;4.716;2023-03-13T00:16:28;10.80;99.90
35240;DHT22;21376;50.954;4.716;2023-03-13T00:18:57;10.70;99.90
35240;DHT22;21376;50.954;4.716;2023-03-13T00:21:25;10.80;99.90
35240;DHT22;21376;50.954;4.716;2023-03-13T00:23:55;10.80;99.90
35240;DHT22;21376;50.954;4.716;2023-03-13T00:26:26;10.80;99.90
35240;DHT22;21376;50.954;4.716;2023-03-13T00:28:53;10.90;99.90
35240;DHT22;21376;50.954;4.716;2023-03-13T00:31:23;10.90;99.90
35240;DHT22;21376;50.954;4.716;2023-03-13T00:34:02;10.90;99.90
35240;DHT22;21376;50.954;4.716;2023-03-13T00:36:34;10.90;99.90
35240;DHT22;21376;50.954;4.716;2023-03-13T00:39:00;10.90;99.90
35240;DHT22;21376;50.954;4.716;2023-03-13T00:41:29;10.90;99.90
35240;DHT22;21376;50.954;4.716;2023-03-13T00:43:57;11.00;99.90
35240;DHT22;21376;50.954;4.716;2023-03-13T00:46:25;10.90;99.90
35240;DHT22;21376;50.954;4.716;2023-03-13T00:48:55;11.00;99.90
35240;DHT22;21376;50.954;4.716;2023-03-13T00:51:22;11.00;99.90
35240;DHT22;21376;50.954;4.716;2023-03-13T00:53:52;11.00;99.90
35240;DHT22;21376;50.954;4.716;2023-03-13T00:56:21;11.00;99.90
35240;DHT22;21376;50.954;4.716;2023-03-13T00:58:55;11.00;99.90
35240;DHT22;21376;50.954;4.716;2023-03-13T01:01:29;11.00;99.90
35240;DHT22;21376;50.954;4.716;2023-03-13T01:04:06;11.00;99.90
35240;DHT22;21376;50.954;4.716;2023-03-13T01:06:46;11.00;99.90
35240;DHT22;21376;50.954;4.716;2023-03-13T01:09:15;11.00;99.90
35240;DHT22;21376;50.954;4.716;2023-03-13T01:11:43;10.90;99.90
35240;DHT22;21376;50.954;4.716;2023-03-13T01:14:17;11.00;99.90
35240;DHT22;21376;50.954;4.716;2023-03-13T01:19:21;11.00;99.90
35240;DHT22;21376;50.954;4.716;2023-03-13T01:21:56;11.00;99.90
35240;DHT22;21376;50.954;4.716;2023-03-13T01:24:25;11.10;99.90
35240;DHT22;21376;50.954;4.716;2023-03-13T01:26:51;11.10;99.90
35240;DHT22;21376;50.954;4.716;2023-03-13T01:29:20;11.10;99.90
35240;DHT22;21376;50.954;4.716;2023-03-13T01:31:49;11.20;99.90
35240;DHT22;21376;50.954;4.716;2023-03-13T01:34:15;11.20;99.90
35240;DHT22;21376;50.954;4.716;2023-03-13T01:36:41;11.30;99.90
35240;DHT22;21376;50.954;4.716;2023-03-13T01:39:09;11.30;99.90
35240;DHT22;21376;50.954;4.716;2023-03-13T01:41:36;11.30;99.90
35240;DHT22;21376;50.954;4.716;2023-03-13T01:44:13;11.40;99.90
35240;DHT22;21376;50.954;4.716;2023-03-13T01:46:44;11.40;99.90
35240;DHT22;21376;50.954;4.716;2023-03-13T01:51:52;11.40;99.90
35240;DHT22;21376;50.954;4.716;2023-03-13T01:54:47;11.50;99.90
35240;DHT22;21376;50.954;4.716;2023-03-13T01:57:27;11.50;99.90
35240;DHT22;21376;50.954;4.716;2023-03-13T02:00:08;11.50;99.90
35240;DHT22;21376;50.954;4.716;2023-03-13T02:02:40;11.50;99.90
35240;DHT22;21376;50.954;4.716;2023-03-13T02:05:08;11.30;99.90
35240;DHT22;21376;50.954;4.716;2023-03-13T02:07:47;11.50;99.90
35240;DHT22;21376;50.954;4.716;2023-03-13T02:10:16;11.50;99.90
35240;DHT22;21376;50.954;4.716;2023-03-13T02:12:50;11.40;99.90
35240;DHT22;21376;50.954;4.716;2023-03-13T02:15:21;11.40;99.90
35240;DHT22;21376;50.954;4.716;2023-03-13T02:17:50;11.50;99.90
35240;DHT22;21376;50.954;4.716;2023-03-13T02:20:18;11.50;99.90
35240;DHT22;21376;50.954;4.716;2023-03-13T02:25:47;11.50;99.90
35240;DHT22;21376;50.954;4.716;2023-03-13T02:28:23;11.60;99.90
35240;DHT22;21376;50.954;4.716;2023-03-13T02:30:55;11.70;99.90
35240;DHT22;21376;50.954;4.716;2023-03-13T02:33:28;11.70;99.90
35240;DHT22;21376;50.954;4.716;2023-03-13T02:35:57;11.80;99.90
35240;DHT22;21376;50.954;4.716;2023-03-13T02:38:27;11.80;99.90
35240;DHT22;21376;50.954;4.716;2023-03-13T02:41:12;11.90;99.90
35240;DHT22;21376;50.954;4.716;2023-03-13T02:43:41;12.00;99.90
35240;DHT22;21376;50.954;4.716;2023-03-13T02:46:24;12.10;99.90
35240;DHT22;21376;50.954;4.716;2023-03-13T02:48:55;12.20;99.90
35240;DHT22;21376;50.954;4.716;2023-03-13T02:51:41;12.20;99.90
35240;DHT22;21376;50.954;4.716;2023-03-13T02:54:15;12.30;99.90
35240;DHT22;21376;50.954;4.716;2023-03-13T02:56:47;12.40;99.90
35240;DHT22;21376;50.954;4.716;2023-03-13T02:59:15;12.40;99.90
35240;DHT22;21376;50.954;4.716;2023-03-13T03:01:43;12.50;99.90
35240;DHT22;21376;50.954;4.716;2023-03-13T03:04:23;12.60;99.90
35240;DHT22;21376;50.954;4.716;2023-03-13T03:06:52;12.50;99.90
35240;DHT22;21376;50.954;4.716;2023-03-13T03:09:21;12.60;99.90
35240;DHT22;21376;50.954;4.716;2023-03-13T03:11:48;12.80;99.90
35240;DHT22;21376;50.954;4.716;2023-03-13T03:14:15;12.80;99.90
35240;DHT22;21376;50.954;4.716;2023-03-13T03:16:42;12.80;99.90
35240;DHT22;21376;50.954;4.716;2023-03-13T03:19:10;12.80;99.90
35240;DHT22;21376;50.954;4.716;2023-03-13T03:21:37;12.90;99.90
35240;DHT22;21376;50.954;4.716;2023-03-13T03:24:03;12.80;99.90
35240;DHT22;21376;50.954;4.716;2023-03-13T03:26:31;13.00;99.90
35240;DHT22;21376;50.954;4.716;2023-03-13T03:29:00;12.80;99.90
35240;DHT22;21376;50.954;4.716;2023-03-13T03:31:27;13.00;99.90
35240;DHT22;21376;50.954;4.716;2023-03-13T03:33:57;13.10;99.90
35240;DHT22;21376;50.954;4.716;2023-03-13T03:36:25;13.20;99.90
35240;DHT22;21376;50.954;4.716;2023-03-13T03:38:51;13.20;99.90
35240;DHT22;21376;50.954;4.716;2023-03-13T03:41:18;13.30;99.90
35240;DHT22;21376;50.954;4.716;2023-03-13T03:43:46;13.30;99.90
35240;DHT22;21376;50.954;4.716;2023-03-13T03:46:13;13.20;99.90
35240;DHT22;21376;50.954;4.716;2023-03-13T03:48:41;13.20;99.90
35240;DHT22;21376;50.954;4.716;2023-03-13T03:51:18;13.30;99.90
35240;DHT22;21376;50.954;4.716;2023-03-13T03:53:45;13.40;99.90
35240;DHT22;21376;50.954;4.716;2023-03-13T03:56:13;13.30;99.90
35240;DHT22;21376;50.954;4.716;2023-03-13T03:58:41;13.30;99.90
35240;DHT22;21376;50.954;4.716;2023-03-13T04:01:07;13.30;99.90
35240;DHT22;21376;50.954;4.716;2023-03-13T04:03:35;13.30;99.90
35240;DHT22;21376;50.954;4.716;2023-03-13T04:06:01;13.30;99.90
35240;DHT22;21376;50.954;4.716;2023-03-13T04:08:28;13.30;99.90
35240;DHT22;21376;50.954;4.716;2023-03-13T04:10:54;13.30;99.90
35240;DHT22;21376;50.954;4.716;2023-03-13T04:13:23;13.40;99.90
35240;DHT22;21376;50.954;4.716;2023-03-13T04:16:06;13.30;99.90
35240;DHT22;21376;50.954;4.716;2023-03-13T04:18:38;13.40;99.90
35240;DHT22;21376;50.954;4.716;2023-03-13T04:21:05;13.50;99.90
35240;DHT22;21376;50.954;4.716;2023-03-13T04:23:31;13.50;99.90
35240;DHT22;21376;50.954;4.716;2023-03-13T04:26:09;13.50;99.90
35240;DHT22;21376;50.954;4.716;2023-03-13T04:28:41;13.50;99.90
35240;DHT22;21376;50.954;4.716;2023-03-13T04:31:16;13.50;99.90
35240;DHT22;21376;50.954;4.716;2023-03-13T04:33:42;13.50;99.90
35240;DHT22;21376;50.954;4.716;2023-03-13T04:36:09;13.50;99.90
35240;DHT22;21376;50.954;4.716;2023-03-13T04:38:38;13.50;99.90
35240;DHT22;21376;50.954;4.716;2023-03-13T04:41:04;13.60;99.90
35240;DHT22;21376;50.954;4.716;2023-03-13T04:43:35;13.60;99.90
35240;DHT22;21376;50.954;4.716;2023-03-13T04:46:02;13.60;99.90
35240;DHT22;21376;50.954;4.716;2023-03-13T04:48:29;13.60;99.90
35240;DHT22;21376;50.954;4.716;2023-03-13T04:50:55;13.70;99.90
35240;DHT22;21376;50.954;4.716;2023-03-13T04:53:24;13.60;99.90
35240;DHT22;21376;50.954;4.716;2023-03-13T04:55:53;13.70;99.90
35240;DHT22;21376;50.954;4.716;2023-03-13T04:58:19;13.60;99.90
35240;DHT22;21376;50.954;4.716;2023-03-13T05:00:45;13.60;99.90
35240;DHT22;21376;50.954;4.716;2023-03-13T05:03:11;13.70;99.90
35240;DHT22;21376;50.954;4.716;2023-03-13T05:05:37;13.70;99.90
35240;DHT22;21376;50.954;4.716;2023-03-13T05:08:07;13.70;99.90
35240;DHT22;21376;50.954;4.716;2023-03-13T05:10:43;13.70;99.90
35240;DHT22;21376;50.954;4.716;2023-03-13T05:13:18;13.60;99.90
35240;DHT22;21376;50.954;4.716;2023-03-13T05:15:47;13.80;99.90
35240;DHT22;21376;50.954;4.716;2023-03-13T05:18:16;13.70;99.90
35240;DHT22;21376;50.954;4.716;2023-03-13T05:20:45;13.70;99.90
35240;DHT22;21376;50.954;4.716;2023-03-13T05:23:13;13.70;99.90
35240;DHT22;21376;50.954;4.716;2023-03-13T05:25:39;13.80;99.90
35240;DHT22;21376;50.954;4.716;2023-03-13T05:28:08;13.80;99.90
35240;DHT22;21376;50.954;4.716;2023-03-13T05:30:37;13.80;99.90
35240;DHT22;21376;50.954;4.716;2023-03-13T05:33:04;13.90;99.90
35240;DHT22;21376;50.954;4.716;2023-03-13T05:35:32;13.90;99.90
35240;DHT22;21376;50.954;4.716;2023-03-13T05:38:02;13.90;99.90
35240;DHT22;21376;50.954;4.716;2023-03-13T05:40:27;13.80;99.90
35240;DHT22;21376;50.954;4.716;2023-03-13T05:42:56;13.90;99.90
35240;DHT22;21376;50.954;4.716;2023-03-13T05:45:22;13.90;99.90
35240;DHT22;21376;50.954;4.716;2023-03-13T05:47:48;13.80;99.90
35240;DHT22;21376;50.954;4.716;2023-03-13T05:50:14;13.80;99.90
35240;DHT22;21376;50.954;4.716;2023-03-13T05:52:43;13.80;99.90
35240;DHT22;21376;50.954;4.716;2023-03-13T05:55:10;13.80;99.90
35240;DHT22;21376;50.954;4.716;2023-03-13T05:57:37;13.80;99.90
35240;DHT22;21376;50.954;4.716;2023-03-13T06:00:22;13.90;99.90
35240;DHT22;21376;50.954;4.716;2023-03-13T06:02:51;13.70;99.90
35240;DHT22;21376;50.954;4.716;2023-03-13T06:05:17;13.80;99.90
35240;DHT22;21376;50.954;4.716;2023-03-13T06:07:48;13.80;99.90
35240;DHT22;21376;50.954;4.716;2023-03-13T06:10:19;13.90;99.90
35240;DHT22;21376;50.954;4.716;2023-03-13T06:12:56;13.80;99.90
35240;DHT22;21376;50.954;4.716;2023-03-13T06:15:24;13.80;99.90
35240;DHT22;21376;50.954;4.716;2023-03-13T06:17:56;13.80;99.90
35240;DHT22;21376;50.954;4.716;2023-03-13T06:20:25;13.90;99.90
35240;DHT22;21376;50.954;4.716;2023-03-13T06:22:53;13.90;99.90
35240;DHT22;21376;50.954;4.716;2023-03-13T06:25:19;13.70;99.90
35240;DHT22;21376;50.954;4.716;2023-03-13T06:27:45;13.90;99.90
35240;DHT22;21376;50.954;4.716;2023-03-13T06:30:11;13.90;99.90
35240;DHT22;21376;50.954;4.716;2023-03-13T06:32:37;13.80;99.90
35240;DHT22;21376;50.954;4.716;2023-03-13T06:35:05;14.10;99.90
35240;DHT22;21376;50.954;4.716;2023-03-13T06:37:35;13.90;99.90
35240;DHT22;21376;50.954;4.716;2023-03-13T06:40:04;13.80;99.90
35240;DHT22;21376;50.954;4.716;2023-03-13T06:42:35;13.90;99.90
35240;DHT22;21376;50.954;4.716;2023-03-13T06:45:01;13.90;99.90
35240;DHT22;21376;50.954;4.716;2023-03-13T06:47:30;14.00;99.90
35240;DHT22;21376;50.954;4.716;2023-03-13T06:50:00;13.90;99.90
35240;DHT22;21376;50.954;4.716;2023-03-13T06:52:26;13.80;99.90
35240;DHT22;21376;50.954;4.716;2023-03-13T06:55:01;13.90;99.90
35240;DHT22;21376;50.954;4.716;2023-03-13T06:57:33;13.90;99.90
35240;DHT22;21376;50.954;4.716;2023-03-13T07:00:29;14.00;99.90
35240;DHT22;21376;50.954;4.716;2023-03-13T07:03:13;13.90;99.90
35240;DHT22;21376;50.954;4.716;2023-03-13T07:06:12;14.00;99.90
35240;DHT22;21376;50.954;4.716;2023-03-13T07:08:56;14.00;99.90
35240;DHT22;21376;50.954;4.716;2023-03-13T07:11:24;14.10;99.90
35240;DHT22;21376;50.954;4.716;2023-03-13T07:13:54;14.10;99.90
35240;DHT22;21376;50.954;4.716;2023-03-13T07:16:24;14.10;99.90
35240;DHT22;21376;50.954;4.716;2023-03-13T07:22:02;14.20;99.90
35240;DHT22;21376;50.954;4.716;2023-03-13T07:24:31;14.20;99.90
35240;DHT22;21376;50.954;4.716;2023-03-13T07:27:03;14.30;99.90
35240;DHT22;21376;50.954;4.716;2023-03-13T07:29:29;14.20;99.90
35240;DHT22;21376;50.954;4.716;2023-03-13T07:31:55;14.20;99.90
35240;DHT22;21376;50.954;4.716;2023-03-13T07:34:25;14.10;99.90
35240;DHT22;21376;50.954;4.716;2023-03-13T07:36:53;14.20;99.90
35240;DHT22;21376;50.954;4.716;2023-03-13T07:39:20;14.30;99.90
35240;DHT22;21376;50.954;4.716;2023-03-13T07:41:46;14.30;99.90
35240;DHT22;21376;50.954;4.716;2023-03-13T07:44:13;14.50;99.90
35240;DHT22;21376;50.954;4.716;2023-03-13T07:46:42;14.30;99.90
35240;DHT22;21376;50.954;4.716;2023-03-13T07:49:08;14.30;99.90
35240;DHT22;21376;50.954;4.716;2023-03-13T07:51:39;14.40;99.90
35240;DHT22;21376;50.954;4.716;2023-03-13T07:54:04;14.40;99.90
35240;DHT22;21376;50.954;4.716;2023-03-13T07:56:34;14.50;99.90
35240;DHT22;21376;50.954;4.716;2023-03-13T07:59:02;14.70;99.90
35240;DHT22;21376;50.954;4.716;2023-03-13T08:01:30;15.00;99.90
35240;DHT22;21376;50.954;4.716;2023-03-13T08:03:56;14.90;99.90
35240;DHT22;21376;50.954;4.716;2023-03-13T08:06:29;15.10;99.90
35240;DHT22;21376;50.954;4.716;2023-03-13T08:09:01;15.00;99.90
35240;DHT22;21376;50.954;4.716;2023-03-13T08:11:42;15.00;99.90
35240;DHT22;21376;50.954;4.716;2023-03-13T08:14:16;14.90;99.90
35240;DHT22;21376;50.954;4.716;2023-03-13T08:16:42;15.00;99.90
35240;DHT22;21376;50.954;4.716;2023-03-13T08:19:09;15.00;99.90
35240;DHT22;21376;50.954;4.716;2023-03-13T08:21:36;14.90;99.90
35240;DHT22;21376;50.954;4.716;2023-03-13T08:24:07;14.70;99.90
35240;DHT22;21376;50.954;4.716;2023-03-13T08:26:36;14.80;99.90
35240;DHT22;21376;50.954;4.716;2023-03-13T08:29:10;14.90;99.90
35240;DHT22;21376;50.954;4.716;2023-03-13T08:31:47;15.00;99.90
35240;DHT22;21376;50.954;4.716;2023-03-13T08:34:17;15.30;99.90
35240;DHT22;21376;50.954;4.716;2023-03-13T08:36:44;15.50;99.90
35240;DHT22;21376;50.954;4.716;2023-03-13T08:39:30;15.70;99.90
35240;DHT22;21376;50.954;4.716;2023-03-13T08:41:57;15.70;99.90
35240;DHT22;21376;50.954;4.716;2023-03-13T08:44:33;15.60;99.90
35240;DHT22;21376;50.954;4.716;2023-03-13T08:47:00;15.30;99.90
35240;DHT22;21376;50.954;4.716;2023-03-13T08:49:29;15.30;99.90
35240;DHT22;21376;50.954;4.716;2023-03-13T08:51:58;15.40;99.90
35240;DHT22;21376;50.954;4.716;2023-03-13T08:54:33;15.40;99.90
35240;DHT22;21376;50.954;4.716;2023-03-13T08:56:59;15.60;99.90
35240;DHT22;21376;50.954;4.716;2023-03-13T08:59:26;15.70;99.90
35240;DHT22;21376;50.954;4.716;2023-03-13T09:01:55;16.30;99.90
35240;DHT22;21376;50.954;4.716;2023-03-13T09:04:25;17.60;99.90
35240;DHT22;21376;50.954;4.716;2023-03-13T09:06:53;18.80;99.90
35240;DHT22;21376;50.954;4.716;2023-03-13T09:09:18;18.80;99.90
35240;DHT22;21376;50.954;4.716;2023-03-13T09:11:48;18.10;99.90
35240;DHT22;21376;50.954;4.716;2023-03-13T09:14:15;17.40;99.90
35240;DHT22;21376;50.954;4.716;2023-03-13T09:16:45;16.70;99.90
35240;DHT22;21376;50.954;4.716;2023-03-13T09:19:13;16.60;99.90
35240;DHT22;21376;50.954;4.716;2023-03-13T09:21:41;16.60;99.90
35240;DHT22;21376;50.954;4.716;2023-03-13T09:24:14;16.40;99.90
35240;DHT22;21376;50.954;4.716;2023-03-13T09:26:41;16.50;99.90
35240;DHT22;21376;50.954;4.716;2023-03-13T09:29:13;16.40;99.90
35240;DHT22;21376;50.954;4.716;2023-03-13T09:31:46;16.40;99.90
35240;DHT22;21376;50.954;4.716;2023-03-13T09:34:14;16.50;99.90
35240;DHT22;21376;50.954;4.716;2023-03-13T09:36:42;17.10;99.90
35240;DHT22;21376;50.954;4.716;2023-03-13T09:39:10;17.50;99.90
35240;DHT22;21376;50.954;4.716;2023-03-13T09:44:18;19.90;99.90
35240;DHT22;21376;50.954;4.716;2023-03-13T09:52:24;20.00;99.90
35240;DHT22;21376;50.954;4.716;2023-03-13T09:58:03;19.10;99.90
35240;DHT22;21376;50.954;4.716;2023-03-13T10:00:36;18.40;99.90
35240;DHT22;21376;50.954;4.716;2023-03-13T10:03:22;18.10;99.90
35240;DHT22;21376;50.954;4.716;2023-03-13T10:05:56;17.50;99.90
35240;DHT22;21376;50.954;4.716;2023-03-13T10:08:33;17.40;99.90
35240;DHT22;21376;50.954;4.716;2023-03-13T10:11:37;17.30;99.90
35240;DHT22;21376;50.954;4.716;2023-03-13T10:14:21;17.90;99.90
35240;DHT22;21376;50.954;4.716;2023-03-13T10:17:22;18.00;99.90
35240;DHT22;21376;50.954;4.716;2023-03-13T10:20:22;17.90;99.90
35240;DHT22;21376;50.954;4.716;2023-03-13T10:22:59;17.50;99.90
35240;DHT22;21376;50.954;4.716;2023-03-13T10:25:37;17.50;99.90
35240;DHT22;21376;50.954;4.716;2023-03-13T10:28:21;17.50;99.90
35240;DHT22;21376;50.954;4.716;2023-03-13T10:30:56;17.20;99.90
35240;DHT22;21376;50.954;4.716;2023-03-13T10:33:27;17.10;99.90
35240;DHT22;21376;50.954;4.716;2023-03-13T10:36:11;17.10;99.90
35240;DHT22;21376;50.954;4.716;2023-03-13T10:38:50;17.10;99.90
35240;DHT22;21376;50.954;4.716;2023-03-13T10:41:34;17.00;99.90
35240;DHT22;21376;50.954;4.716;2023-03-13T10:44:20;17.10;99.90
35240;DHT22;21376;50.954;4.716;2023-03-13T10:46:49;17.30;99.90
35240;DHT22;21376;50.954;4.716;2023-03-13T10:49:22;17.20;99.90
35240;DHT22;21376;50.954;4.716;2023-03-13T10:52:05;17.30;99.90
35240;DHT22;21376;50.954;4.716;2023-03-13T10:54:39;17.10;99.90
35240;DHT22;21376;50.954;4.716;2023-03-13T10:59:52;17.00;99.90
35240;DHT22;21376;50.954;4.716;2023-03-13T11:02:30;17.00;99.90
35240;DHT22;21376;50.954;4.716;2023-03-13T11:05:03;17.20;99.90
35240;DHT22;21376;50.954;4.716;2023-03-13T11:07:45;17.80;99.90
35240;DHT22;21376;50.954;4.716;2023-03-13T11:10:30;18.10;99.90
35240;DHT22;21376;50.954;4.716;2023-03-13T11:13:01;18.60;99.90
35240;DHT22;21376;50.954;4.716;2023-03-13T11:15:53;18.90;99.90
35240;DHT22;21376;50.954;4.716;2023-03-13T11:18:29;20.30;99.90
35240;DHT22;21376;50.954;4.716;2023-03-13T11:20:57;20.50;99.90
35240;DHT22;21376;50.954;4.716;2023-03-13T11:23:29;20.80;99.90
35240;DHT22;21376;50.954;4.716;2023-03-13T11:26:15;21.50;99.90
35240;DHT22;21376;50.954;4.716;2023-03-13T11:31:57;22.10;99.90
35240;DHT22;21376;50.954;4.716;2023-03-13T11:34:36;21.20;99.90
35240;DHT22;21376;50.954;4.716;2023-03-13T11:37:14;19.50;99.90
35240;DHT22;21376;50.954;4.716;2023-03-13T11:45:50;19.00;99.90
35240;DHT22;21376;50.954;4.716;2023-03-13T11:51:08;18.80;99.90
35240;DHT22;21376;50.954;4.716;2023-03-13T11:56:56;20.10;99.90
35240;DHT22;21376;50.954;4.716;2023-03-13T12:05:54;18.70;99.90
35240;DHT22;21376;50.954;4.716;2023-03-13T12:08:28;18.90;99.90
35240;DHT22;21376;50.954;4.716;2023-03-13T12:13:45;20.20;99.90
35240;DHT22;21376;50.954;4.716;2023-03-13T12:16:17;20.60;99.90
35240;DHT22;21376;50.954;4.716;2023-03-13T12:18:45;21.10;99.90
35240;DHT22;21376;50.954;4.716;2023-03-13T12:22:01;21.50;99.90
35240;DHT22;21376;50.954;4.716;2023-03-13T12:27:17;21.60;99.90
35240;DHT22;21376;50.954;4.716;2023-03-13T12:35:40;20.80;99.90
35240;DHT22;21376;50.954;4.716;2023-03-13T12:38:11;21.50;99.90
35240;DHT22;21376;50.954;4.716;2023-03-13T12:43:39;21.20;99.90
35240;DHT22;21376;50.954;4.716;2023-03-13T12:49:42;21.50;99.90
35240;DHT22;21376;50.954;4.716;2023-03-13T12:55:05;20.30;99.90
35240;DHT22;21376;50.954;4.716;2023-03-13T13:00:54;20.40;99.90
35240;DHT22;21376;50.954;4.716;2023-03-13T13:03:36;20.50;99.90
35240;DHT22;21376;50.954;4.716;2023-03-13T13:06:15;21.00;99.90
35240;DHT22;21376;50.954;4.716;2023-03-13T13:11:47;21.70;99.90
35240;DHT22;21376;50.954;4.716;2023-03-13T13:16:54;20.80;99.90
35240;DHT22;21376;50.954;4.716;2023-03-13T13:25:34;19.20;99.90
35240;DHT22;21376;50.954;4.716;2023-03-13T13:30:50;18.60;99.90
35240;DHT22;21376;50.954;4.716;2023-03-13T13:38:48;18.90;99.90
35240;DHT22;21376;50.954;4.716;2023-03-13T13:41:33;18.50;99.90
35240;DHT22;21376;50.954;4.716;2023-03-13T13:44:22;18.40;99.90
35240;DHT22;21376;50.954;4.716;2023-03-13T13:46:52;18.30;99.90
35240;DHT22;21376;50.954;4.716;2023-03-13T13:49:21;18.60;99.90
35240;DHT22;21376;50.954;4.716;2023-03-13T13:54:53;18.20;99.90
35240;DHT22;21376;50.954;4.716;2023-03-13T13:57:30;18.10;99.90
35240;DHT22;21376;50.954;4.716;2023-03-13T14:00:25;18.30;99.90
35240;DHT22;21376;50.954;4.716;2023-03-13T14:02:56;18.30;99.90
35240;DHT22;21376;50.954;4.716;2023-03-13T14:05:30;18.50;99.90
35240;DHT22;21376;50.954;4.716;2023-03-13T14:08:02;18.90;99.90
35240;DHT22;21376;50.954;4.716;2023-03-13T14:10:38;19.30;99.90
35240;DHT22;21376;50.954;4.716;2023-03-13T14:13:19;19.10;99.90
35240;DHT22;21376;50.954;4.716;2023-03-13T14:15:49;18.90;99.90
35240;DHT22;21376;50.954;4.716;2023-03-13T14:18:29;18.80;99.90
35240;DHT22;21376;50.954;4.716;2023-03-13T14:21:13;18.60;99.90
35240;DHT22;21376;50.954;4.716;2023-03-13T14:23:42;18.30;99.90
35240;DHT22;21376;50.954;4.716;2023-03-13T14:28:41;18.40;99.90
35240;DHT22;21376;50.954;4.716;2023-03-13T14:33:51;18.50;99.90
35240;DHT22;21376;50.954;4.716;2023-03-13T14:36:17;18.50;99.90
35240;DHT22;21376;50.954;4.716;2023-03-13T14:38:53;18.40;99.90
35240;DHT22;21376;50.954;4.716;2023-03-13T14:41:30;18.30;99.90
35240;DHT22;21376;50.954;4.716;2023-03-13T14:44:11;18.40;99.90
35240;DHT22;21376;50.954;4.716;2023-03-13T14:46:42;18.50;99.90
35240;DHT22;21376;50.954;4.716;2023-03-13T14:49:21;18.30;99.90
35240;DHT22;21376;50.954;4.716;2023-03-13T14:52:04;18.50;99.90
35240;DHT22;21376;50.954;4.716;2023-03-13T14:57:26;18.60;99.90
35240;DHT22;21376;50.954;4.716;2023-03-13T14:59:54;18.40;99.90
35240;DHT22;21376;50.954;4.716;2023-03-13T15:02:27;18.00;99.90
35240;DHT22;21376;50.954;4.716;2023-03-13T15:05:03;17.70;99.90
35240;DHT22;21376;50.954;4.716;2023-03-13T15:07:51;18.00;99.90
35240;DHT22;21376;50.954;4.716;2023-03-13T15:12:45;18.00;99.90
35240;DHT22;21376;50.954;4.716;2023-03-13T15:15:16;18.00;99.90
35240;DHT22;21376;50.954;4.716;2023-03-13T15:17:42;17.90;99.90
35240;DHT22;21376;50.954;4.716;2023-03-13T15:20:15;17.90;99.90
35240;DHT22;21376;50.954;4.716;2023-03-13T15:22:44;18.00;99.90
35240;DHT22;21376;50.954;4.716;2023-03-13T15:25:30;17.90;99.90
35240;DHT22;21376;50.954;4.716;2023-03-13T15:28:14;17.70;99.90
35240;DHT22;21376;50.954;4.716;2023-03-13T15:30:46;17.70;99.90
35240;DHT22;21376;50.954;4.716;2023-03-13T15:33:26;17.70;99.90
35240;DHT22;21376;50.954;4.716;2023-03-13T15:35:57;17.60;99.90
35240;DHT22;21376;50.954;4.716;2023-03-13T15:38:26;17.50;99.90
35240;DHT22;21376;50.954;4.716;2023-03-13T15:40:52;17.60;99.90
35240;DHT22;21376;50.954;4.716;2023-03-13T15:43:20;17.50;99.90
35240;DHT22;21376;50.954;4.716;2023-03-13T15:45:49;17.40;99.90
35240;DHT22;21376;50.954;4.716;2023-03-13T15:48:29;17.30;99.90
35240;DHT22;21376;50.954;4.716;2023-03-13T15:51:01;17.30;99.90
35240;DHT22;21376;50.954;4.716;2023-03-13T15:53:30;17.10;99.90
35240;DHT22;21376;50.954;4.716;2023-03-13T15:55:58;17.20;99.90
35240;DHT22;21376;50.954;4.716;2023-03-13T15:58:27;17.30;99.90
35240;DHT22;21376;50.954;4.716;2023-03-13T16:00:56;17.20;99.90
35240;DHT22;21376;50.954;4.716;2023-03-13T16:03:27;17.30;99.90
35240;DHT22;21376;50.954;4.716;2023-03-13T16:06:19;17.20;99.90
35240;DHT22;21376;50.954;4.716;2023-03-13T16:08:56;17.10;99.90
35240;DHT22;21376;50.954;4.716;2023-03-13T16:11:23;17.10;99.90
35240;DHT22;21376;50.954;4.716;2023-03-13T16:13:50;17.10;99.90
35240;DHT22;21376;50.954;4.716;2023-03-13T16:16:22;17.10;99.90
35240;DHT22;21376;50.954;4.716;2023-03-13T16:18:52;16.90;99.90
35240;DHT22;21376;50.954;4.716;2023-03-13T16:21:22;16.80;99.90
35240;DHT22;21376;50.954;4.716;2023-03-13T16:23:55;16.70;99.90
35240;DHT22;21376;50.954;4.716;2023-03-13T16:26:26;16.70;99.90
35240;DHT22;21376;50.954;4.716;2023-03-13T16:28:55;16.60;99.90
35240;DHT22;21376;50.954;4.716;2023-03-13T16:31:28;16.60;99.90
35240;DHT22;21376;50.954;4.716;2023-03-13T16:33:58;16.60;99.90
35240;DHT22;21376;50.954;4.716;2023-03-13T16:36:31;16.50;99.90
35240;DHT22;21376;50.954;4.716;2023-03-13T16:39:06;16.50;99.90
35240;DHT22;21376;50.954;4.716;2023-03-13T16:41:37;16.40;99.90
35240;DHT22;21376;50.954;4.716;2023-03-13T16:44:11;16.30;99.90
35240;DHT22;21376;50.954;4.716;2023-03-13T16:46:41;16.40;99.90
35240;DHT22;21376;50.954;4.716;2023-03-13T16:49:15;16.20;99.90
35240;DHT22;21376;50.954;4.716;2023-03-13T16:51:41;16.10;99.90
35240;DHT22;21376;50.954;4.716;2023-03-13T16:54:08;16.10;99.90
35240;DHT22;21376;50.954;4.716;2023-03-13T16:56:41;16.10;99.90
35240;DHT22;21376;50.954;4.716;2023-03-13T16:59:13;15.90;99.90
35240;DHT22;21376;50.954;4.716;2023-03-13T17:01:44;16.00;99.90
35240;DHT22;21376;50.954;4.716;2023-03-13T17:04:16;16.00;99.90
35240;DHT22;21376;50.954;4.716;2023-03-13T17:09:44;15.90;99.90
35240;DHT22;21376;50.954;4.716;2023-03-13T17:12:18;15.90;99.90
35240;DHT22;21376;50.954;4.716;2023-03-13T17:14:45;15.90;99.90
35240;DHT22;21376;50.954;4.716;2023-03-13T17:17:19;15.80;99.90
35240;DHT22;21376;50.954;4.716;2023-03-13T17:19:45;15.80;99.90
35240;DHT22;21376;50.954;4.716;2023-03-13T17:22:17;15.70;99.90
35240;DHT22;21376;50.954;4.716;2023-03-13T17:24:46;15.70;99.90
35240;DHT22;21376;50.954;4.716;2023-03-13T17:27:15;15.60;99.90
35240;DHT22;21376;50.954;4.716;2023-03-13T17:29:44;15.70;99.90
35240;DHT22;21376;50.954;4.716;2023-03-13T17:32:11;15.70;99.90
35240;DHT22;21376;50.954;4.716;2023-03-13T17:34:38;15.60;99.90
35240;DHT22;21376;50.954;4.716;2023-03-13T17:37:18;15.60;99.90
35240;DHT22;21376;50.954;4.716;2023-03-13T17:39:51;15.50;99.90
35240;DHT22;21376;50.954;4.716;2023-03-13T17:42:28;15.50;99.90
35240;DHT22;21376;50.954;4.716;2023-03-13T17:45:09;15.50;99.90
35240;DHT22;21376;50.954;4.716;2023-03-13T17:47:44;15.40;99.90